sensor_id;sensor_type;location;lat;lon;timestamp;temperature;humidity
8539;DHT22;4307;53.868;11.680;2024-03-25T00:01:34;7.70;99.90
8539;DHT22;4307;53.868;11.680;2024-03-25T00:04:01;7.70;99.90
8539;DHT22;4307;53.868;11.680;2024-03-25T00:06:27;7.70;99.90
8539;DHT22;4307;53.868;11.680;2024-03-25T00:08:53;7.70;99.90
8539;DHT22;4307;53.868;11.680;2024-03-25T00:11:20;7.70;99.90
8539;DHT22;4307;53.868;11.680;2024-03-25T00:13:45;7.70;99.90
8539;DHT22;4307;53.868;11.680;2024-03-25T00:16:12;7.70;99.90
8539;DHT22;4307;53.868;11.680;2024-03-25T00:18:38;7.70;99.90
8539;DHT22;4307;53.868;11.680;2024-03-25T00:21:06;7.70;99.90
8539;DHT22;4307;53.868;11.680;2024-03-25T00:23:31;7.70;99.90
8539;DHT22;4307;53.868;11.680;2024-03-25T00:25:58;7.70;99.90
8539;DHT22;4307;53.868;11.680;2024-03-25T00:28:24;7.70;99.90
8539;DHT22;4307;53.868;11.680;2024-03-25T00:30:50;7.70;99.90
8539;DHT22;4307;53.868;11.680;2024-03-25T00:33:16;7.70;99.90
8539;DHT22;4307;53.868;11.680;2024-03-25T00:35:43;7.60;99.90
8539;DHT22;4307;53.868;11.680;2024-03-25T00:38:10;7.70;99.90
8539;DHT22;4307;53.868;11.680;2024-03-25T00:40:36;7.70;99.90
8539;DHT22;4307;53.868;11.680;2024-03-25T00:43:02;7.70;99.90
8539;DHT22;4307;53.868;11.680;2024-03-25T00:45:29;7.60;99.90
8539;DHT22;4307;53.868;11.680;2024-03-25T00:47:56;7.60;99.90
8539;DHT22;4307;53.868;11.680;2024-03-25T00:50:22;7.60;99.90
8539;DHT22;4307;53.868;11.680;2024-03-25T00:52:48;7.60;99.90
8539;DHT22;4307;53.868;11.680;2024-03-25T00:55:16;7.60;99.90
8539;DHT22;4307;53.868;11.680;2024-03-25T00:57:42;7.60;99.90
8539;DHT22;4307;53.868;11.680;2024-03-25T01:00:10;7.60;99.90
8539;DHT22;4307;53.868;11.680;2024-03-25T01:02:36;7.60;99.90
8539;DHT22;4307;53.868;11.680;2024-03-25T01:05:03;7.60;99.90
8539;DHT22;4307;53.868;11.680;2024-03-25T01:07:30;7.60;99.90
8539;DHT22;4307;53.868;11.680;2024-03-25T01:09:57;7.60;99.90
8539;DHT22;4307;53.868;11.680;2024-03-25T01:12:25;7.50;99.90
8539;DHT22;4307;53.868;11.680;2024-03-25T01:14:52;7.50;99.90
8539;DHT22;4307;53.868;11.680;2024-03-25T01:17:17;7.50;99.90
8539;DHT22;4307;53.868;11.680;2024-03-25T01:19:44;7.60;99.90
8539;DHT22;4307;53.868;11.680;2024-03-25T01:22:10;7.50;99.90
8539;DHT22;4307;53.868;11.680;2024-03-25T01:24:36;7.50;99.90
8539;DHT22;4307;53.868;11.680;2024-03-25T01:27:02;7.50;99.90
8539;DHT22;4307;53.868;11.680;2024-03-25T01:29:31;7.50;99.90
8539;DHT22;4307;53.868;11.680;2024-03-25T01:31:56;7.50;99.90
8539;DHT22;4307;53.868;11.680;2024-03-25T01:34:24;7.50;99.90
8539;DHT22;4307;53.868;11.680;2024-03-25T01:36:51;7.50;99.90
8539;DHT22;4307;53.868;11.680;2024-03-25T01:39:17;7.50;99.90
8539;DHT22;4307;53.868;11.680;2024-03-25T01:41:43;7.50;99.90
8539;DHT22;4307;53.868;11.680;2024-03-25T01:44:10;7.50;99.90
8539;DHT22;4307;53.868;11.680;2024-03-25T01:46:38;7.50;99.90
8539;DHT22;4307;53.868;11.680;2024-03-25T01:49:05;7.50;99.90
8539;DHT22;4307;53.868;11.680;2024-03-25T01:51:31;7.50;99.90
8539;DHT22;4307;53.868;11.680;2024-03-25T01:53:59;7.50;99.90
8539;DHT22;4307;53.868;11.680;2024-03-25T01:56:25;7.50;99.90
8539;DHT22;4307;53.868;11.680;2024-03-25T01:58:53;7.50;99.90
8539;DHT22;4307;53.868;11.680;2024-03-25T02:01:20;7.50;99.90
8539;DHT22;4307;53.868;11.680;2024-03-25T02:03:48;7.50;99.90
8539;DHT22;4307;53.868;11.680;2024-03-25T02:06:16;7.40;99.90
8539;DHT22;4307;53.868;11.680;2024-03-25T02:08:44;7.40;99.90
8539;DHT22;4307;53.868;11.680;2024-03-25T02:11:10;7.40;99.90
8539;DHT22;4307;53.868;11.680;2024-03-25T02:13:38;7.40;99.90
8539;DHT22;4307;53.868;11.680;2024-03-25T02:16:05;7.40;99.90
8539;DHT22;4307;53.868;11.680;2024-03-25T02:18:32;7.40;99.90
8539;DHT22;4307;53.868;11.680;2024-03-25T02:20:59;7.40;99.90
8539;DHT22;4307;53.868;11.680;2024-03-25T02:23:26;7.40;99.90
8539;DHT22;4307;53.868;11.680;2024-03-25T02:25:54;7.40;99.90
8539;DHT22;4307;53.868;11.680;2024-03-25T02:28:20;7.40;99.90
8539;DHT22;4307;53.868;11.680;2024-03-25T02:30:46;7.40;99.90
8539;DHT22;4307;53.868;11.680;2024-03-25T02:33:13;7.40;99.90
8539;DHT22;4307;53.868;11.680;2024-03-25T02:35:41;7.40;99.90
8539;DHT22;4307;53.868;11.680;2024-03-25T02:38:08;7.40;99.90
8539;DHT22;4307;53.868;11.680;2024-03-25T02:40:35;7.40;99.90
8539;DHT22;4307;53.868;11.680;2024-03-25T02:43:03;7.40;99.90
8539;DHT22;4307;53.868;11.680;2024-03-25T02:45:29;7.40;99.90
8539;DHT22;4307;53.868;11.680;2024-03-25T02:47:56;7.40;99.90
8539;DHT22;4307;53.868;11.680;2024-03-25T02:50:22;7.40;99.90
8539;DHT22;4307;53.868;11.680;2024-03-25T02:52:48;7.40;99.90
8539;DHT22;4307;53.868;11.680;2024-03-25T02:55:14;7.40;99.90
8539;DHT22;4307;53.868;11.680;2024-03-25T02:57:41;7.40;99.90
8539;DHT22;4307;53.868;11.680;2024-03-25T03:00:09;7.40;99.90
8539;DHT22;4307;53.868;11.680;2024-03-25T03:02:36;7.30;99.90
8539;DHT22;4307;53.868;11.680;2024-03-25T03:05:02;7.30;99.90
8539;DHT22;4307;53.868;11.680;2024-03-25T03:07:29;7.30;99.90
8539;DHT22;4307;53.868;11.680;2024-03-25T03:09:55;7.30;99.90
8539;DHT22;4307;53.868;11.680;2024-03-25T03:12:21;7.30;99.90
8539;DHT22;4307;53.868;11.680;2024-03-25T03:14:48;7.30;99.90
8539;DHT22;4307;53.868;11.680;2024-03-25T03:17:15;7.30;99.90
8539;DHT22;4307;53.868;11.680;2024-03-25T03:19:42;7.30;99.90
8539;DHT22;4307;53.868;11.680;2024-03-25T03:22:07;7.30;99.90
8539;DHT22;4307;53.868;11.680;2024-03-25T03:24:34;7.30;99.90
8539;DHT22;4307;53.868;11.680;2024-03-25T03:27:00;7.30;99.90
8539;DHT22;4307;53.868;11.680;2024-03-25T03:29:27;7.20;99.90
8539;DHT22;4307;53.868;11.680;2024-03-25T03:31:52;7.20;99.90
8539;DHT22;4307;53.868;11.680;2024-03-25T03:34:20;7.20;99.90
8539;DHT22;4307;53.868;11.680;2024-03-25T03:36:46;7.20;99.90
8539;DHT22;4307;53.868;11.680;2024-03-25T03:39:13;7.20;99.90
8539;DHT22;4307;53.868;11.680;2024-03-25T03:41:39;7.20;99.90
8539;DHT22;4307;53.868;11.680;2024-03-25T03:44:06;7.20;99.90
8539;DHT22;4307;53.868;11.680;2024-03-25T03:46:32;7.20;99.90
8539;DHT22;4307;53.868;11.680;2024-03-25T03:48:59;7.20;99.90
8539;DHT22;4307;53.868;11.680;2024-03-25T03:51:26;7.20;99.90
8539;DHT22;4307;53.868;11.680;2024-03-25T03:53:52;7.20;99.90
8539;DHT22;4307;53.868;11.680;2024-03-25T03:56:18;7.20;99.90
8539;DHT22;4307;53.868;11.680;2024-03-25T03:58:45;7.20;99.90
8539;DHT22;4307;53.868;11.680;2024-03-25T04:01:14;7.20;99.90
8539;DHT22;4307;53.868;11.680;2024-03-25T04:03:41;7.20;99.90
8539;DHT22;4307;53.868;11.680;2024-03-25T04:06:09;7.20;99.90
8539;DHT22;4307;53.868;11.680;2024-03-25T04:08:37;7.20;99.90
8539;DHT22;4307;53.868;11.680;2024-03-25T04:11:04;7.10;99.90
8539;DHT22;4307;53.868;11.680;2024-03-25T04:13:31;7.10;99.90
8539;DHT22;4307;53.868;11.680;2024-03-25T04:16:01;7.20;99.90
8539;DHT22;4307;53.868;11.680;2024-03-25T04:18:27;7.20;99.90
8539;DHT22;4307;53.868;11.680;2024-03-25T04:20:54;7.20;99.90
8539;DHT22;4307;53.868;11.680;2024-03-25T04:23:20;7.20;99.90
8539;DHT22;4307;53.868;11.680;2024-03-25T04:25:48;7.10;99.90
8539;DHT22;4307;53.868;11.680;2024-03-25T04:28:14;7.20;99.90
8539;DHT22;4307;53.868;11.680;2024-03-25T04:30:40;7.10;99.90
8539;DHT22;4307;53.868;11.680;2024-03-25T04:33:06;7.10;99.90
8539;DHT22;4307;53.868;11.680;2024-03-25T04:35:33;7.10;99.90
8539;DHT22;4307;53.868;11.680;2024-03-25T04:37:59;7.20;99.90
8539;DHT22;4307;53.868;11.680;2024-03-25T04:40:25;7.10;99.90
8539;DHT22;4307;53.868;11.680;2024-03-25T04:42:52;7.10;99.90
8539;DHT22;4307;53.868;11.680;2024-03-25T04:45:18;7.10;99.90
8539;DHT22;4307;53.868;11.680;2024-03-25T04:47:44;7.20;99.90
8539;DHT22;4307;53.868;11.680;2024-03-25T04:50:09;7.10;99.90
8539;DHT22;4307;53.868;11.680;2024-03-25T04:52:35;7.10;99.90
8539;DHT22;4307;53.868;11.680;2024-03-25T04:55:01;7.10;99.90
8539;DHT22;4307;53.868;11.680;2024-03-25T04:57:27;7.10;99.90
8539;DHT22;4307;53.868;11.680;2024-03-25T04:59:54;7.10;99.90
8539;DHT22;4307;53.868;11.680;2024-03-25T05:02:20;7.10;99.90
8539;DHT22;4307;53.868;11.680;2024-03-25T05:04:45;7.10;99.90
8539;DHT22;4307;53.868;11.680;2024-03-25T05:07:11;7.20;99.90
8539;DHT22;4307;53.868;11.680;2024-03-25T05:09:37;7.20;99.90
8539;DHT22;4307;53.868;11.680;2024-03-25T05:12:03;7.10;99.90
8539;DHT22;4307;53.868;11.680;2024-03-25T05:14:29;7.10;99.90
8539;DHT22;4307;53.868;11.680;2024-03-25T05:16:56;7.10;99.90
8539;DHT22;4307;53.868;11.680;2024-03-25T05:19:22;7.10;99.90
8539;DHT22;4307;53.868;11.680;2024-03-25T05:21:47;7.10;99.90
8539;DHT22;4307;53.868;11.680;2024-03-25T05:24:13;7.10;99.90
8539;DHT22;4307;53.868;11.680;2024-03-25T05:26:39;7.10;99.90
8539;DHT22;4307;53.868;11.680;2024-03-25T05:29:05;7.10;99.90
8539;DHT22;4307;53.868;11.680;2024-03-25T05:31:30;7.10;99.90
8539;DHT22;4307;53.868;11.680;2024-03-25T05:33:58;7.10;99.90
8539;DHT22;4307;53.868;11.680;2024-03-25T05:36:23;7.00;99.90
8539;DHT22;4307;53.868;11.680;2024-03-25T05:38:49;7.00;99.90
8539;DHT22;4307;53.868;11.680;2024-03-25T05:41:15;7.00;99.90
8539;DHT22;4307;53.868;11.680;2024-03-25T05:43:41;7.00;99.90
8539;DHT22;4307;53.868;11.680;2024-03-25T05:46:06;7.00;99.90
8539;DHT22;4307;53.868;11.680;2024-03-25T05:48:32;7.00;99.90
8539;DHT22;4307;53.868;11.680;2024-03-25T05:51:03;7.10;99.90
8539;DHT22;4307;53.868;11.680;2024-03-25T05:53:30;7.00;99.90
8539;DHT22;4307;53.868;11.680;2024-03-25T05:55:55;7.00;99.90
8539;DHT22;4307;53.868;11.680;2024-03-25T05:58:21;7.00;99.90
8539;DHT22;4307;53.868;11.680;2024-03-25T06:00:47;7.00;99.90
8539;DHT22;4307;53.868;11.680;2024-03-25T06:03:14;7.00;99.90
8539;DHT22;4307;53.868;11.680;2024-03-25T06:05:39;7.00;99.90
8539;DHT22;4307;53.868;11.680;2024-03-25T06:08:07;7.00;99.90
8539;DHT22;4307;53.868;11.680;2024-03-25T06:10:37;7.00;99.90
8539;DHT22;4307;53.868;11.680;2024-03-25T06:13:03;7.00;99.90
8539;DHT22;4307;53.868;11.680;2024-03-25T06:15:29;7.10;99.90
8539;DHT22;4307;53.868;11.680;2024-03-25T06:17:54;7.10;99.90
8539;DHT22;4307;53.868;11.680;2024-03-25T06:20:20;7.20;99.90
8539;DHT22;4307;53.868;11.680;2024-03-25T06:22:46;7.20;99.90
8539;DHT22;4307;53.868;11.680;2024-03-25T06:25:13;7.30;99.90
8539;DHT22;4307;53.868;11.680;2024-03-25T06:27:39;7.30;99.90
8539;DHT22;4307;53.868;11.680;2024-03-25T06:30:06;7.40;99.90
8539;DHT22;4307;53.868;11.680;2024-03-25T06:32:50;7.40;99.90
8539;DHT22;4307;53.868;11.680;2024-03-25T06:35:34;7.40;99.90
8539;DHT22;4307;53.868;11.680;2024-03-25T06:38:00;7.40;99.90
8539;DHT22;4307;53.868;11.680;2024-03-25T06:40:27;7.40;99.90
8539;DHT22;4307;53.868;11.680;2024-03-25T06:42:53;7.40;99.90
8539;DHT22;4307;53.868;11.680;2024-03-25T06:45:19;7.40;99.90
8539;DHT22;4307;53.868;11.680;2024-03-25T06:47:44;7.40;99.90
8539;DHT22;4307;53.868;11.680;2024-03-25T06:50:10;7.40;99.90
8539;DHT22;4307;53.868;11.680;2024-03-25T06:52:36;7.50;99.90
8539;DHT22;4307;53.868;11.680;2024-03-25T06:55:02;7.50;99.90
8539;DHT22;4307;53.868;11.680;2024-03-25T06:57:29;7.60;99.90
8539;DHT22;4307;53.868;11.680;2024-03-25T06:59:55;7.60;99.90
8539;DHT22;4307;53.868;11.680;2024-03-25T07:02:21;7.60;99.90
8539;DHT22;4307;53.868;11.680;2024-03-25T07:04:47;7.60;99.90
8539;DHT22;4307;53.868;11.680;2024-03-25T07:07:12;7.70;99.90
8539;DHT22;4307;53.868;11.680;2024-03-25T07:09:38;7.70;99.90
8539;DHT22;4307;53.868;11.680;2024-03-25T07:12:04;7.80;99.90
8539;DHT22;4307;53.868;11.680;2024-03-25T07:14:32;7.80;99.90
8539;DHT22;4307;53.868;11.680;2024-03-25T07:16:58;7.90;99.90
8539;DHT22;4307;53.868;11.680;2024-03-25T07:19:23;7.90;99.90
8539;DHT22;4307;53.868;11.680;2024-03-25T07:21:49;8.10;99.90
8539;DHT22;4307;53.868;11.680;2024-03-25T07:24:15;8.20;99.90
8539;DHT22;4307;53.868;11.680;2024-03-25T07:26:41;8.20;99.90
8539;DHT22;4307;53.868;11.680;2024-03-25T07:29:07;8.30;99.90
8539;DHT22;4307;53.868;11.680;2024-03-25T07:31:34;8.30;99.90
8539;DHT22;4307;53.868;11.680;2024-03-25T07:34:00;8.30;99.90
8539;DHT22;4307;53.868;11.680;2024-03-25T07:36:25;8.40;99.90
8539;DHT22;4307;53.868;11.680;2024-03-25T07:38:51;8.50;99.90
8539;DHT22;4307;53.868;11.680;2024-03-25T07:41:17;8.60;99.90
8539;DHT22;4307;53.868;11.680;2024-03-25T07:43:43;8.60;99.90
8539;DHT22;4307;53.868;11.680;2024-03-25T07:46:09;8.50;99.90
8539;DHT22;4307;53.868;11.680;2024-03-25T07:48:36;8.50;99.90
8539;DHT22;4307;53.868;11.680;2024-03-25T07:51:02;8.40;99.90
8539;DHT22;4307;53.868;11.680;2024-03-25T07:53:27;8.40;99.90
8539;DHT22;4307;53.868;11.680;2024-03-25T07:55:53;8.50;99.90
8539;DHT22;4307;53.868;11.680;2024-03-25T07:58:19;8.70;99.90
8539;DHT22;4307;53.868;11.680;2024-03-25T08:00:45;9.10;99.90
8539;DHT22;4307;53.868;11.680;2024-03-25T08:03:10;9.40;99.90
8539;DHT22;4307;53.868;11.680;2024-03-25T08:05:37;9.80;99.90
8539;DHT22;4307;53.868;11.680;2024-03-25T08:08:04;10.10;99.90
8539;DHT22;4307;53.868;11.680;2024-03-25T08:10:30;10.40;99.90
8539;DHT22;4307;53.868;11.680;2024-03-25T08:12:55;10.60;99.90
8539;DHT22;4307;53.868;11.680;2024-03-25T08:15:21;10.60;99.90
8539;DHT22;4307;53.868;11.680;2024-03-25T08:17:47;10.60;99.90
8539;DHT22;4307;53.868;11.680;2024-03-25T08:20:13;10.60;99.90
8539;DHT22;4307;53.868;11.680;2024-03-25T08:22:40;10.50;99.90
8539;DHT22;4307;53.868;11.680;2024-03-25T08:25:06;10.40;99.90
8539;DHT22;4307;53.868;11.680;2024-03-25T08:27:32;10.30;99.90
8539;DHT22;4307;53.868;11.680;2024-03-25T08:29:58;10.40;99.90
8539;DHT22;4307;53.868;11.680;2024-03-25T08:32:23;10.50;99.90
8539;DHT22;4307;53.868;11.680;2024-03-25T08:34:49;10.50;99.90
8539;DHT22;4307;53.868;11.680;2024-03-25T08:37:15;10.80;99.90
8539;DHT22;4307;53.868;11.680;2024-03-25T08:39:42;11.00;99.90
8539;DHT22;4307;53.868;11.680;2024-03-25T08:42:08;11.30;99.90
8539;DHT22;4307;53.868;11.680;2024-03-25T08:44:33;11.50;99.90
8539;DHT22;4307;53.868;11.680;2024-03-25T08:46:59;11.50;99.90
8539;DHT22;4307;53.868;11.680;2024-03-25T08:49:25;11.60;99.90
8539;DHT22;4307;53.868;11.680;2024-03-25T08:51:51;11.60;99.90
8539;DHT22;4307;53.868;11.680;2024-03-25T08:54:16;11.80;99.90
8539;DHT22;4307;53.868;11.680;2024-03-25T08:56:43;12.20;99.90
8539;DHT22;4307;53.868;11.680;2024-03-25T08:59:09;12.50;99.90
8539;DHT22;4307;53.868;11.680;2024-03-25T09:01:35;12.70;99.90
8539;DHT22;4307;53.868;11.680;2024-03-25T09:04:01;13.00;99.90
8539;DHT22;4307;53.868;11.680;2024-03-25T09:06:27;13.00;99.90
8539;DHT22;4307;53.868;11.680;2024-03-25T09:08:53;13.00;99.90
8539;DHT22;4307;53.868;11.680;2024-03-25T09:11:37;13.10;99.90
8539;DHT22;4307;53.868;11.680;2024-03-25T09:14:04;13.10;99.90
8539;DHT22;4307;53.868;11.680;2024-03-25T09:16:30;13.00;99.90
8539;DHT22;4307;53.868;11.680;2024-03-25T09:18:56;13.10;99.90
8539;DHT22;4307;53.868;11.680;2024-03-25T09:21:21;13.30;99.90
8539;DHT22;4307;53.868;11.680;2024-03-25T09:23:47;13.40;99.90
8539;DHT22;4307;53.868;11.680;2024-03-25T09:26:13;13.40;99.90
8539;DHT22;4307;53.868;11.680;2024-03-25T09:28:39;13.20;99.90
8539;DHT22;4307;53.868;11.680;2024-03-25T09:31:06;13.00;99.90
8539;DHT22;4307;53.868;11.680;2024-03-25T09:33:32;12.80;99.90
8539;DHT22;4307;53.868;11.680;2024-03-25T09:35:58;12.70;99.90
8539;DHT22;4307;53.868;11.680;2024-03-25T09:38:24;12.70;99.90
8539;DHT22;4307;53.868;11.680;2024-03-25T09:40:52;12.70;99.90
8539;DHT22;4307;53.868;11.680;2024-03-25T09:43:23;12.80;99.90
8539;DHT22;4307;53.868;11.680;2024-03-25T09:45:49;12.80;99.90
8539;DHT22;4307;53.868;11.680;2024-03-25T09:48:19;12.80;99.90
8539;DHT22;4307;53.868;11.680;2024-03-25T09:50:47;12.80;99.90
8539;DHT22;4307;53.868;11.680;2024-03-25T09:53:14;12.70;99.90
8539;DHT22;4307;53.868;11.680;2024-03-25T09:55:40;12.70;99.90
8539;DHT22;4307;53.868;11.680;2024-03-25T09:58:06;12.70;99.90
8539;DHT22;4307;53.868;11.680;2024-03-25T10:00:32;12.60;99.90
8539;DHT22;4307;53.868;11.680;2024-03-25T10:02:58;12.50;99.90
8539;DHT22;4307;53.868;11.680;2024-03-25T10:05:25;12.40;99.90
8539;DHT22;4307;53.868;11.680;2024-03-25T10:07:51;12.30;99.90
8539;DHT22;4307;53.868;11.680;2024-03-25T10:10:19;12.10;99.90
8539;DHT22;4307;53.868;11.680;2024-03-25T10:12:45;11.90;99.90
8539;DHT22;4307;53.868;11.680;2024-03-25T10:15:15;11.80;99.90
8539;DHT22;4307;53.868;11.680;2024-03-25T10:17:41;11.80;99.90
8539;DHT22;4307;53.868;11.680;2024-03-25T10:20:12;11.80;99.90
8539;DHT22;4307;53.868;11.680;2024-03-25T10:22:42;11.90;99.90
8539;DHT22;4307;53.868;11.680;2024-03-25T10:25:18;11.90;99.90
8539;DHT22;4307;53.868;11.680;2024-03-25T10:27:53;12.10;99.90
8539;DHT22;4307;53.868;11.680;2024-03-25T10:30:19;12.40;99.90
8539;DHT22;4307;53.868;11.680;2024-03-25T10:32:45;12.80;99.90
8539;DHT22;4307;53.868;11.680;2024-03-25T10:35:11;13.30;99.90
8539;DHT22;4307;53.868;11.680;2024-03-25T10:37:38;13.70;99.90
8539;DHT22;4307;53.868;11.680;2024-03-25T10:40:07;13.80;99.90
8539;DHT22;4307;53.868;11.680;2024-03-25T10:42:39;13.80;99.90
8539;DHT22;4307;53.868;11.680;2024-03-25T10:45:08;13.70;99.90
8539;DHT22;4307;53.868;11.680;2024-03-25T10:47:34;13.50;99.90
8539;DHT22;4307;53.868;11.680;2024-03-25T10:50:05;13.40;99.90
8539;DHT22;4307;53.868;11.680;2024-03-25T10:52:32;13.50;99.90
8539;DHT22;4307;53.868;11.680;2024-03-25T10:54:58;13.80;99.90
8539;DHT22;4307;53.868;11.680;2024-03-25T10:57:26;14.00;99.90
8539;DHT22;4307;53.868;11.680;2024-03-25T10:59:53;14.40;99.90
8539;DHT22;4307;53.868;11.680;2024-03-25T11:02:19;14.80;99.90
8539;DHT22;4307;53.868;11.680;2024-03-25T11:04:46;15.20;99.90
8539;DHT22;4307;53.868;11.680;2024-03-25T11:07:14;15.50;99.90
8539;DHT22;4307;53.868;11.680;2024-03-25T11:09:41;15.70;99.90
8539;DHT22;4307;53.868;11.680;2024-03-25T11:12:10;15.90;99.90
8539;DHT22;4307;53.868;11.680;2024-03-25T11:14:37;16.00;99.90
8539;DHT22;4307;53.868;11.680;2024-03-25T11:17:03;16.00;99.90
8539;DHT22;4307;53.868;11.680;2024-03-25T11:19:39;16.00;99.90
8539;DHT22;4307;53.868;11.680;2024-03-25T11:22:09;16.00;99.90
8539;DHT22;4307;53.868;11.680;2024-03-25T11:24:35;16.00;99.90
8539;DHT22;4307;53.868;11.680;2024-03-25T11:27:01;16.10;99.90
8539;DHT22;4307;53.868;11.680;2024-03-25T11:29:27;15.90;99.90
8539;DHT22;4307;53.868;11.680;2024-03-25T11:31:55;15.60;99.90
8539;DHT22;4307;53.868;11.680;2024-03-25T11:34:24;15.50;99.90
8539;DHT22;4307;53.868;11.680;2024-03-25T11:36:50;15.30;99.90
8539;DHT22;4307;53.868;11.680;2024-03-25T11:39:16;15.20;99.90
8539;DHT22;4307;53.868;11.680;2024-03-25T11:41:42;15.00;99.90
8539;DHT22;4307;53.868;11.680;2024-03-25T11:44:08;14.80;99.90
8539;DHT22;4307;53.868;11.680;2024-03-25T11:46:36;14.70;99.90
8539;DHT22;4307;53.868;11.680;2024-03-25T11:49:05;14.50;99.90
8539;DHT22;4307;53.868;11.680;2024-03-25T11:51:31;14.30;99.90
8539;DHT22;4307;53.868;11.680;2024-03-25T11:53:57;14.10;99.90
8539;DHT22;4307;53.868;11.680;2024-03-25T11:56:23;13.90;99.90
8539;DHT22;4307;53.868;11.680;2024-03-25T11:58:49;13.70;99.90
8539;DHT22;4307;53.868;11.680;2024-03-25T12:01:15;13.50;99.90
8539;DHT22;4307;53.868;11.680;2024-03-25T12:03:40;13.20;99.90
8539;DHT22;4307;53.868;11.680;2024-03-25T12:06:07;13.10;99.90
8539;DHT22;4307;53.868;11.680;2024-03-25T12:08:33;13.00;99.90
8539;DHT22;4307;53.868;11.680;2024-03-25T12:11:00;12.80;99.90
8539;DHT22;4307;53.868;11.680;2024-03-25T12:13:43;12.60;99.90
8539;DHT22;4307;53.868;11.680;2024-03-25T12:16:09;12.40;99.90
8539;DHT22;4307;53.868;11.680;2024-03-25T12:18:35;12.20;99.90
8539;DHT22;4307;53.868;11.680;2024-03-25T12:21:01;12.10;99.90
8539;DHT22;4307;53.868;11.680;2024-03-25T12:23:31;11.90;99.90
8539;DHT22;4307;53.868;11.680;2024-03-25T12:25:59;11.60;99.90
8539;DHT22;4307;53.868;11.680;2024-03-25T12:28:24;11.30;99.90
8539;DHT22;4307;53.868;11.680;2024-03-25T12:30:52;11.10;99.90
8539;DHT22;4307;53.868;11.680;2024-03-25T12:33:18;10.80;99.90
8539;DHT22;4307;53.868;11.680;2024-03-25T12:35:45;10.70;99.90
8539;DHT22;4307;53.868;11.680;2024-03-25T12:38:24;10.50;99.90
8539;DHT22;4307;53.868;11.680;2024-03-25T12:40:52;10.40;99.90
8539;DHT22;4307;53.868;11.680;2024-03-25T12:43:18;10.30;99.90
8539;DHT22;4307;53.868;11.680;2024-03-25T12:45:44;10.20;99.90
8539;DHT22;4307;53.868;11.680;2024-03-25T12:48:10;10.20;99.90
8539;DHT22;4307;53.868;11.680;2024-03-25T12:50:36;10.40;99.90
8539;DHT22;4307;53.868;11.680;2024-03-25T12:53:02;10.80;99.90
8539;DHT22;4307;53.868;11.680;2024-03-25T12:55:28;11.20;99.90
8539;DHT22;4307;53.868;11.680;2024-03-25T12:57:55;11.60;99.90
8539;DHT22;4307;53.868;11.680;2024-03-25T13:00:21;11.90;99.90
8539;DHT22;4307;53.868;11.680;2024-03-25T13:02:47;12.30;99.90
8539;DHT22;4307;53.868;11.680;2024-03-25T13:05:13;12.50;99.90
8539;DHT22;4307;53.868;11.680;2024-03-25T13:07:38;12.60;99.90
8539;DHT22;4307;53.868;11.680;2024-03-25T13:10:05;12.70;99.90
8539;DHT22;4307;53.868;11.680;2024-03-25T13:12:31;12.70;99.90
8539;DHT22;4307;53.868;11.680;2024-03-25T13:14:58;12.70;99.90
8539;DHT22;4307;53.868;11.680;2024-03-25T13:17:23;12.60;99.90
8539;DHT22;4307;53.868;11.680;2024-03-25T13:19:49;12.40;99.90
8539;DHT22;4307;53.868;11.680;2024-03-25T13:22:15;12.20;99.90
8539;DHT22;4307;53.868;11.680;2024-03-25T13:24:41;12.00;99.90
8539;DHT22;4307;53.868;11.680;2024-03-25T13:27:07;11.90;99.90
8539;DHT22;4307;53.868;11.680;2024-03-25T13:29:32;11.70;99.90
8539;DHT22;4307;53.868;11.680;2024-03-25T13:31:59;11.60;99.90
8539;DHT22;4307;53.868;11.680;2024-03-25T13:34:25;11.60;99.90
8539;DHT22;4307;53.868;11.680;2024-03-25T13:36:51;11.50;99.90
8539;DHT22;4307;53.868;11.680;2024-03-25T13:39:17;11.50;99.90
8539;DHT22;4307;53.868;11.680;2024-03-25T13:41:42;11.40;99.90
8539;DHT22;4307;53.868;11.680;2024-03-25T13:44:08;11.40;99.90
8539;DHT22;4307;53.868;11.680;2024-03-25T13:46:34;11.30;99.90
8539;DHT22;4307;53.868;11.680;2024-03-25T13:49:01;11.20;99.90
8539;DHT22;4307;53.868;11.680;2024-03-25T13:51:27;11.20;99.90
8539;DHT22;4307;53.868;11.680;2024-03-25T13:53:52;11.10;99.90
8539;DHT22;4307;53.868;11.680;2024-03-25T13:56:18;11.10;99.90
8539;DHT22;4307;53.868;11.680;2024-03-25T13:58:44;11.00;99.90
8539;DHT22;4307;53.868;11.680;2024-03-25T14:01:10;11.10;99.90
8539;DHT22;4307;53.868;11.680;2024-03-25T14:03:35;11.20;99.90
8539;DHT22;4307;53.868;11.680;2024-03-25T14:06:03;11.70;99.90
8539;DHT22;4307;53.868;11.680;2024-03-25T14:08:29;12.60;99.90
8539;DHT22;4307;53.868;11.680;2024-03-25T14:10:58;13.60;99.90
8539;DHT22;4307;53.868;11.680;2024-03-25T14:13:24;14.50;99.90
8539;DHT22;4307;53.868;11.680;2024-03-25T14:15:50;14.80;99.90
8539;DHT22;4307;53.868;11.680;2024-03-25T14:18:16;14.60;99.90
8539;DHT22;4307;53.868;11.680;2024-03-25T14:20:41;14.40;99.90
8539;DHT22;4307;53.868;11.680;2024-03-25T14:23:09;14.10;99.90
8539;DHT22;4307;53.868;11.680;2024-03-25T14:25:35;13.70;99.90
8539;DHT22;4307;53.868;11.680;2024-03-25T14:28:01;13.40;99.90
8539;DHT22;4307;53.868;11.680;2024-03-25T14:30:26;13.20;99.90
8539;DHT22;4307;53.868;11.680;2024-03-25T14:32:52;12.90;99.90
8539;DHT22;4307;53.868;11.680;2024-03-25T14:35:18;12.70;99.90
8539;DHT22;4307;53.868;11.680;2024-03-25T14:37:44;12.50;99.90
8539;DHT22;4307;53.868;11.680;2024-03-25T14:40:11;12.40;99.90
8539;DHT22;4307;53.868;11.680;2024-03-25T14:42:37;12.40;99.90
8539;DHT22;4307;53.868;11.680;2024-03-25T14:45:04;12.40;99.90
8539;DHT22;4307;53.868;11.680;2024-03-25T14:47:30;12.40;99.90
8539;DHT22;4307;53.868;11.680;2024-03-25T14:49:56;12.40;99.90
8539;DHT22;4307;53.868;11.680;2024-03-25T14:52:22;12.30;99.90
8539;DHT22;4307;53.868;11.680;2024-03-25T14:54:48;12.10;99.90
8539;DHT22;4307;53.868;11.680;2024-03-25T14:57:15;12.00;99.90
8539;DHT22;4307;53.868;11.680;2024-03-25T14:59:41;11.80;99.90
8539;DHT22;4307;53.868;11.680;2024-03-25T15:02:06;11.70;99.90
8539;DHT22;4307;53.868;11.680;2024-03-25T15:04:32;11.60;99.90
8539;DHT22;4307;53.868;11.680;2024-03-25T15:06:58;11.50;99.90
8539;DHT22;4307;53.868;11.680;2024-03-25T15:09:24;11.40;99.90
8539;DHT22;4307;53.868;11.680;2024-03-25T15:11:50;11.40;99.90
8539;DHT22;4307;53.868;11.680;2024-03-25T15:14:17;11.30;99.90
8539;DHT22;4307;53.868;11.680;2024-03-25T15:16:42;11.30;99.90
8539;DHT22;4307;53.868;11.680;2024-03-25T15:19:08;11.40;99.90
8539;DHT22;4307;53.868;11.680;2024-03-25T15:21:34;11.50;99.90
8539;DHT22;4307;53.868;11.680;2024-03-25T15:24:00;11.60;99.90
8539;DHT22;4307;53.868;11.680;2024-03-25T15:26:25;11.60;99.90
8539;DHT22;4307;53.868;11.680;2024-03-25T15:28:52;11.70;99.90
8539;DHT22;4307;53.868;11.680;2024-03-25T15:31:19;11.80;99.90
8539;DHT22;4307;53.868;11.680;2024-03-25T15:33:44;11.80;99.90
8539;DHT22;4307;53.868;11.680;2024-03-25T15:36:10;11.80;99.90
8539;DHT22;4307;53.868;11.680;2024-03-25T15:38:36;11.80;99.90
8539;DHT22;4307;53.868;11.680;2024-03-25T15:41:02;11.80;99.90
8539;DHT22;4307;53.868;11.680;2024-03-25T15:43:28;11.80;99.90
8539;DHT22;4307;53.868;11.680;2024-03-25T15:45:54;11.80;99.90
8539;DHT22;4307;53.868;11.680;2024-03-25T15:48:21;11.70;99.90
8539;DHT22;4307;53.868;11.680;2024-03-25T15:50:47;11.70;99.90